createdAt,value
2019-02-17T00:02:20.326Z,3.08
2019-02-17T00:04:47.168Z,5.00
2019-02-17T00:07:14.057Z,1.30
2019-02-17T00:09:40.908Z,2.75
2019-02-17T00:12:07.697Z,2.37
2019-02-17T00:14:34.850Z,19.95
2019-02-17T00:17:01.998Z,2.50
2019-02-17T00:19:28.842Z,2.85
2019-02-17T00:21:55.993Z,4.00
2019-02-17T00:24:22.835Z,1.57
2019-02-17T00:26:49.678Z,8.20
2019-02-17T00:29:16.829Z,3.15
2019-02-17T00:31:43.672Z,4.60
2019-02-17T00:34:10.517Z,2.72
2019-02-17T00:36:37.666Z,4.80
2019-02-17T00:39:05.124Z,1.72
2019-02-17T00:41:32.284Z,6.00
2019-02-17T00:43:59.426Z,2.75
2019-02-17T00:46:26.270Z,1.50
2019-02-17T00:48:53.111Z,3.70
2019-02-17T00:51:20.262Z,3.17
2019-02-17T00:53:47.110Z,15.63
2019-02-17T00:56:14.258Z,3.90
2019-02-17T00:58:41.155Z,1.20
2019-02-17T01:01:08.203Z,2.35
2019-02-17T01:03:35.097Z,4.72
2019-02-17T01:06:01.941Z,7.50
2019-02-17T01:08:28.832Z,3.00
2019-02-17T01:10:55.705Z,2.33
2019-02-17T01:13:22.517Z,4.60
2019-02-17T01:15:49.362Z,2.00
2019-02-17T01:18:16.463Z,4.92
2019-02-17T01:20:43.309Z,5.85
2019-02-17T01:23:10.457Z,2.45
2019-02-17T01:25:37.300Z,3.08
2019-02-17T01:28:04.148Z,3.10
2019-02-17T01:30:31.032Z,2.10
2019-02-17T01:33:05.709Z,1.70
2019-02-17T01:35:32.980Z,2.22
2019-02-17T01:38:00.128Z,8.68
2019-02-17T01:40:27.268Z,3.75
2019-02-17T01:42:54.420Z,2.60
2019-02-17T01:45:21.581Z,4.33
2019-02-17T01:47:48.416Z,1.42
2019-02-17T01:50:15.569Z,1.45
2019-02-17T01:52:42.719Z,3.50
2019-02-17T01:55:09.561Z,1.98
2019-02-17T01:57:36.406Z,3.33
2019-02-17T02:00:08.772Z,2.87
2019-02-17T02:02:35.619Z,11.22
2019-02-17T02:05:02.460Z,9.75
2019-02-17T02:07:29.634Z,4.25
2019-02-17T02:09:57.045Z,1.92
2019-02-17T02:12:23.912Z,3.67
2019-02-17T02:14:51.063Z,4.92
2019-02-17T02:17:18.212Z,17.45
2019-02-17T02:19:45.054Z,2.08
2019-02-17T02:22:12.212Z,2.25
2019-02-17T02:24:39.049Z,2.02
2019-02-17T02:27:05.893Z,2.25
2019-02-17T02:29:40.736Z,2.10
2019-02-17T02:32:01.429Z,5.37
2019-02-17T02:34:28.266Z,1.47
2019-02-17T02:36:55.415Z,1.67
2019-02-17T02:39:22.265Z,2.87
2019-02-17T02:41:49.157Z,6.92
2019-02-17T02:44:15.998Z,2.62
2019-02-17T02:46:42.788Z,3.25
2019-02-17T02:49:09.938Z,2.25
2019-02-17T02:51:36.781Z,3.05
2019-02-17T02:54:03.931Z,4.37
2019-02-17T02:56:31.086Z,2.80
2019-02-17T02:58:58.239Z,3.37
2019-02-17T03:01:25.392Z,5.30
2019-02-17T03:03:52.535Z,8.15
2019-02-17T03:06:21.524Z,1.15
2019-02-17T03:08:48.679Z,1.12
2019-02-17T03:11:15.669Z,1.82
2019-02-17T03:13:42.978Z,4.08
2019-02-17T03:16:10.438Z,3.00
2019-02-17T03:18:37.587Z,2.17
2019-02-17T03:21:04.737Z,1.62
2019-02-17T03:23:31.888Z,1.98
2019-02-17T03:25:59.043Z,4.17
2019-02-17T03:28:26.189Z,2.37
2019-02-17T03:30:53.342Z,2.27
2019-02-17T03:33:20.500Z,1.12
2019-02-17T03:35:47.642Z,1.22
2019-02-17T03:38:14.791Z,2.20
2019-02-17T03:40:41.942Z,1.60
2019-02-17T03:43:09.092Z,1.40
2019-02-17T03:45:36.247Z,3.17
2019-02-17T03:48:03.392Z,1.65
2019-02-17T03:50:30.543Z,1.85
2019-02-17T03:52:57.697Z,1.20
2019-02-17T03:55:24.893Z,1.42
2019-02-17T03:57:51.996Z,5.15
2019-02-17T04:00:19.148Z,2.92
2019-02-17T04:02:46.300Z,1.98
2019-02-17T04:05:13.449Z,1.42
2019-02-17T04:07:40.598Z,3.50
2019-02-17T04:10:07.747Z,3.35
2019-02-17T04:12:34.899Z,1.37
2019-02-17T04:15:02.668Z,1.25
2019-02-17T04:17:29.814Z,4.17
2019-02-17T04:19:56.964Z,1.20
2019-02-17T04:22:24.115Z,1.70
2019-02-17T04:24:51.265Z,2.65
2019-02-17T04:27:18.416Z,4.22
2019-02-17T04:29:45.569Z,6.10
2019-02-17T04:32:12.716Z,28.45
2019-02-17T04:34:39.872Z,9.13
2019-02-17T04:37:07.017Z,2.10
2019-02-17T04:39:34.168Z,7.62
2019-02-17T04:42:01.321Z,10.13
2019-02-17T04:44:28.469Z,4.00
2019-02-17T04:46:55.620Z,10.30
2019-02-17T04:49:22.772Z,6.35
2019-02-17T04:51:49.922Z,7.22
2019-02-17T04:54:17.072Z,23.32
2019-02-17T04:56:44.225Z,9.08
2019-02-17T04:59:11.377Z,1.40
2019-02-17T05:01:38.523Z,14.40
2019-02-17T05:04:05.985Z,2.05
2019-02-17T05:06:33.133Z,3.27
2019-02-17T05:09:00.283Z,16.95
2019-02-17T05:11:27.433Z,14.90
2019-02-17T05:13:54.583Z,3.77
2019-02-17T05:16:21.738Z,2.35
2019-02-17T05:18:48.887Z,5.08
2019-02-17T05:21:16.036Z,3.50
2019-02-17T05:23:43.185Z,1.47
2019-02-17T05:26:10.338Z,4.30
2019-02-17T05:28:37.487Z,3.83
2019-02-17T05:31:04.637Z,1.95
2019-02-17T05:33:31.787Z,1.40
2019-02-17T05:35:58.941Z,3.00
2019-02-17T05:38:26.089Z,1.25
2019-02-17T05:40:53.242Z,6.58
2019-02-17T05:43:20.391Z,9.75
2019-02-17T05:45:47.541Z,1.82
2019-02-17T05:48:14.691Z,1.32
2019-02-17T05:50:41.843Z,1.32
2019-02-17T05:53:08.991Z,2.55
2019-02-17T05:55:36.142Z,1.77
2019-02-17T05:58:03.600Z,1.40
2019-02-17T06:00:31.672Z,2.30
2019-02-17T06:02:58.823Z,1.25
2019-02-17T06:05:25.977Z,2.30
2019-02-17T06:07:53.124Z,21.23
2019-02-17T06:10:20.275Z,16.85
2019-02-17T06:12:47.425Z,3.50
2019-02-17T06:15:14.583Z,4.33
2019-02-17T06:17:41.570Z,2.37
2019-02-17T06:20:09.495Z,1.75
2019-02-17T06:22:36.642Z,3.45
2019-02-17T06:25:04.409Z,1.77
2019-02-17T06:27:31.562Z,12.45
2019-02-17T06:29:58.715Z,1.55
2019-02-17T06:32:25.861Z,40.58
2019-02-17T06:34:53.012Z,1.00
2019-02-17T06:37:20.162Z,5.95
2019-02-17T06:39:47.005Z,1.70
2019-02-17T06:42:13.846Z,35.85
2019-02-17T06:44:40.999Z,7.53
2019-02-17T06:47:09.683Z,1.75
2019-02-17T06:49:37.143Z,2.62
2019-02-17T06:52:03.986Z,3.30
2019-02-17T06:54:31.135Z,1.47
2019-02-17T06:57:00.130Z,2.75
2019-02-17T06:59:27.279Z,3.33
2019-02-17T07:01:55.352Z,1.82
2019-02-17T07:04:24.666Z,2.60
2019-02-17T07:06:57.971Z,4.45
2019-02-17T07:09:24.790Z,1.92
2019-02-17T07:11:53.783Z,2.30
2019-02-17T07:14:22.470Z,1.67
2019-02-17T07:16:49.316Z,5.17
2019-02-17T07:19:18.001Z,5.78
2019-02-17T07:21:46.687Z,11.93
2019-02-17T07:24:13.530Z,5.65
2019-02-17T07:26:40.681Z,7.83
2019-02-17T07:29:07.524Z,3.45
2019-02-17T07:31:35.274Z,5.45
2019-02-17T07:34:02.439Z,3.90
2019-02-17T07:36:29.283Z,4.95
2019-02-17T07:38:56.126Z,10.50
2019-02-17T07:41:23.276Z,4.35
2019-02-17T07:43:50.119Z,3.77
2019-02-17T07:46:16.963Z,2.15
2019-02-17T07:48:44.187Z,4.05
2019-02-17T07:51:11.309Z,5.53
2019-02-17T07:53:38.157Z,8.50
2019-02-17T07:56:05.258Z,2.58
2019-02-17T07:58:32.103Z,3.33
2019-02-17T08:00:59.252Z,52.33
2019-02-17T08:03:26.402Z,170.92
2019-02-17T08:05:53.246Z,11.60
2019-02-17T08:08:20.398Z,5.37
2019-02-17T08:10:47.239Z,73.25
2019-02-17T08:13:14.087Z,4.70
2019-02-17T08:15:41.234Z,3.35
2019-02-17T08:18:08.386Z,19.57
2019-02-17T08:20:37.016Z,7.25
2019-02-17T08:23:03.890Z,4.55
2019-02-17T08:25:30.757Z,3.77
2019-02-17T08:27:57.910Z,10.18
2019-02-17T08:30:24.751Z,4.65
2019-02-17T08:32:51.902Z,6.78
2019-02-17T08:35:18.797Z,2.00
2019-02-17T08:37:45.600Z,59.50
2019-02-17T08:40:12.484Z,3.67
2019-02-17T08:42:39.356Z,1.30
2019-02-17T08:45:07.961Z,2.08
2019-02-17T08:47:34.853Z,198.62
2019-02-17T08:50:01.956Z,12.05
2019-02-17T08:52:28.805Z,6.15
2019-02-17T08:54:56.870Z,3.30
2019-02-17T08:57:24.024Z,2.53
2019-02-17T08:59:51.176Z,10.43
2019-02-17T09:02:18.634Z,17.90
2019-02-17T09:04:45.786Z,16.47
2019-02-17T09:07:12.930Z,10.50
2019-02-17T09:09:40.087Z,6.97
2019-02-17T09:12:07.233Z,3.50
2019-02-17T09:14:34.382Z,9.93
2019-02-17T09:17:01.533Z,5.87
2019-02-17T09:19:28.683Z,12.83
2019-02-17T09:21:56.145Z,6.17
2019-02-17T09:24:23.292Z,1.50
2019-02-17T09:26:50.442Z,1.93
2019-02-17T09:29:17.592Z,1.60
2019-02-17T09:31:44.749Z,2.60
2019-02-17T09:34:11.893Z,1.87
2019-02-17T09:36:39.044Z,2.37
2019-02-17T09:39:07.468Z,11.33
2019-02-17T09:41:34.880Z,1.90
2019-02-17T09:44:02.032Z,2.50
2019-02-17T09:46:29.182Z,5.23
2019-02-17T09:48:56.332Z,1.83
2019-02-17T09:51:23.482Z,1.30
2019-02-17T09:53:50.633Z,1.33
2019-02-17T09:56:17.783Z,3.03
2019-02-17T09:58:44.935Z,18.93
2019-02-17T10:01:12.086Z,9.40
2019-02-17T10:03:39.281Z,2.43
2019-02-17T10:06:06.388Z,2.27
2019-02-17T10:08:33.537Z,1.70
2019-02-17T10:11:00.687Z,2.27
2019-02-17T10:13:27.837Z,25.27
2019-02-17T10:15:55.058Z,306.33
2019-02-17T10:18:22.138Z,177.17
2019-02-17T10:20:49.289Z,431.03
2019-02-17T10:23:16.439Z,529.63
2019-02-17T10:25:43.589Z,531.73
2019-02-17T10:28:10.741Z,496.43
2019-02-17T10:30:37.890Z,414.67
2019-02-17T10:33:05.043Z,357.20
2019-02-17T10:35:32.191Z,155.97
2019-02-17T10:37:59.651Z,113.10
2019-02-17T10:40:26.813Z,78.83
2019-02-17T10:42:53.951Z,86.97
2019-02-17T10:45:21.102Z,676.60
2019-02-17T10:47:48.252Z,569.10
2019-02-17T10:50:15.406Z,377.63
2019-02-17T10:52:43.474Z,324.37
2019-02-17T10:55:11.546Z,428.93
2019-02-17T10:57:38.696Z,370.43
2019-02-17T11:00:09.534Z,665.13
2019-02-17T11:02:46.362Z,663.23
2019-02-17T11:05:06.855Z,714.33
2019-02-17T11:07:34.059Z,244.67
2019-02-17T11:10:01.836Z,213.93
2019-02-17T11:12:28.973Z,468.07
2019-02-17T11:14:56.738Z,29.77
2019-02-17T11:17:24.199Z,7.70
2019-02-17T11:19:51.348Z,13.60
2019-02-17T11:22:23.122Z,23.63
2019-02-17T11:24:46.887Z,543.30
2019-02-17T11:27:14.028Z,380.83
2019-02-17T11:29:40.944Z,7.90
2019-02-17T11:32:08.024Z,41.77
2019-02-17T11:34:36.140Z,25.27
2019-02-17T11:37:03.870Z,11.80
2019-02-17T11:39:31.069Z,63.47
2019-02-17T11:41:58.128Z,495.77
2019-02-17T11:44:26.212Z,303.33
2019-02-17T11:46:53.590Z,410.87
2019-02-17T11:49:21.336Z,382.43
2019-02-17T11:51:48.878Z,534.80
2019-02-17T11:54:16.376Z,439.70
2019-02-17T11:56:43.333Z,179.30
2019-02-17T11:59:10.370Z,109.07
2019-02-17T12:01:37.209Z,268.30
2019-02-17T12:04:04.055Z,400.77
2019-02-17T12:06:31.100Z,39.17
2019-02-17T12:08:58.047Z,38.30
2019-02-17T12:11:24.892Z,84.23
2019-02-17T12:13:51.781Z,404.27
2019-02-17T12:16:18.721Z,392.47
2019-02-17T12:18:46.040Z,44.33
2019-02-17T12:21:16.286Z,224.63
2019-02-17T12:23:44.942Z,141.03
2019-02-17T12:26:13.627Z,12.73
2019-02-17T12:28:45.221Z,283.00
2019-02-17T12:31:14.073Z,11.73
2019-02-17T12:33:41.223Z,364.80
2019-02-17T12:36:08.990Z,24.70
2019-02-17T12:38:37.066Z,22.07
2019-02-17T12:41:04.574Z,74.93
2019-02-17T12:43:31.670Z,60.00
2019-02-17T12:45:58.458Z,12.03
2019-02-17T12:48:25.356Z,12.63
2019-02-17T12:50:52.251Z,36.67
2019-02-17T12:53:19.089Z,197.40
2019-02-17T12:55:45.886Z,203.00
2019-02-17T12:58:13.039Z,665.03
2019-02-17T13:00:40.190Z,131.83
2019-02-17T13:03:07.185Z,194.80
2019-02-17T13:05:34.186Z,19.03
2019-02-17T13:08:01.208Z,653.13
2019-02-17T13:10:28.483Z,26.10
2019-02-17T13:12:58.091Z,65.57
2019-02-17T13:15:25.548Z,41.80
2019-02-17T13:17:53.043Z,35.40
2019-02-17T13:20:20.464Z,16.00
2019-02-17T13:22:47.614Z,26.17
2019-02-17T13:25:15.383Z,6.70
2019-02-17T13:27:42.531Z,10.73
2019-02-17T13:30:21.354Z,10.17
2019-02-17T13:32:49.984Z,15.90
2019-02-17T13:35:21.802Z,8.87
2019-02-17T13:37:48.953Z,10.57
2019-02-17T13:40:18.866Z,7.93
2019-02-17T13:42:47.862Z,9.93
2019-02-17T13:45:15.673Z,8.77
2019-02-17T13:47:42.775Z,18.80
2019-02-17T13:50:10.847Z,15.43
2019-02-17T13:52:37.997Z,3.70
2019-02-17T13:55:09.453Z,11.63
2019-02-17T13:57:38.209Z,8.57
2019-02-17T14:00:07.173Z,8.50
2019-02-17T14:02:34.279Z,659.97
2019-02-17T14:05:01.433Z,11.60
2019-02-17T14:07:28.582Z,5.10
2019-02-17T14:09:55.733Z,5.90
2019-02-17T14:12:22.882Z,8.43
2019-02-17T14:14:50.033Z,15.03
2019-02-17T14:17:17.183Z,16.97
2019-02-17T14:19:44.333Z,110.33
2019-02-17T14:22:11.484Z,15.70
2019-02-17T14:24:43.280Z,16.37
2019-02-17T14:29:42.459Z,10.00
2019-02-17T14:32:09.610Z,13.67
2019-02-17T14:34:36.761Z,9.60
2019-02-17T14:37:03.910Z,10.87
2019-02-17T14:39:31.675Z,37.47
2019-02-17T14:41:58.826Z,324.37
2019-02-17T14:44:25.673Z,7.23
2019-02-17T14:46:56.158Z,10.83
2019-02-17T14:49:26.133Z,14.23
2019-02-17T14:51:55.980Z,8.90
2019-02-17T14:54:23.181Z,39.67
2019-02-17T14:56:50.024Z,11.03
2019-02-17T14:59:16.868Z,10.57
2019-02-17T15:01:43.759Z,8.40
2019-02-17T15:04:10.554Z,7.20
2019-02-17T15:06:37.398Z,5.50
2019-02-17T15:09:06.361Z,5.97
2019-02-17T15:11:33.235Z,6.20
2019-02-17T15:14:00.078Z,6.73
2019-02-17T15:16:26.969Z,7.03
2019-02-17T15:18:53.765Z,6.00
2019-02-17T15:21:21.224Z,12.57
2019-02-17T15:23:48.343Z,4.33
2019-02-17T15:26:15.216Z,10.03
2019-02-17T15:28:50.852Z,6.80
2019-02-17T15:31:15.713Z,6.50
2019-02-17T15:33:42.817Z,8.57
2019-02-17T15:36:11.498Z,12.10
2019-02-17T15:38:40.492Z,11.60
2019-02-17T15:41:07.645Z,14.83
2019-02-17T15:43:39.709Z,6.43
2019-02-17T15:46:06.859Z,10.63
2019-02-17T15:48:36.469Z,15.53
2019-02-17T15:51:06.505Z,13.37
2019-02-17T15:53:31.999Z,15.00
2019-02-17T15:55:58.841Z,18.60
2019-02-17T15:58:28.761Z,11.00
2019-02-17T16:00:55.600Z,8.23
2019-02-17T16:03:25.253Z,12.87
2019-02-17T16:05:52.372Z,5.83
2019-02-17T16:08:20.776Z,6.33
2019-02-17T16:10:47.888Z,7.73
2019-02-17T16:13:15.040Z,14.03
2019-02-17T16:15:44.034Z,7.97
2019-02-17T16:18:10.930Z,5.70
2019-02-17T16:20:42.327Z,17.33
2019-02-17T16:23:09.479Z,4.57
2019-02-17T16:25:36.629Z,16.23
2019-02-17T16:28:03.779Z,7.97
2019-02-17T16:30:30.930Z,7.80
2019-02-17T16:32:58.081Z,14.43
2019-02-17T16:35:24.974Z,5.00
2019-02-17T16:37:51.778Z,5.23
2019-02-17T16:40:19.866Z,7.40
2019-02-17T16:42:49.447Z,7.08
2019-02-17T16:45:16.602Z,7.37
2019-02-17T16:47:45.292Z,4.33
2019-02-17T16:50:18.887Z,5.37
2019-02-17T16:52:46.039Z,4.20
2019-02-17T16:55:12.881Z,15.03
2019-02-17T16:57:43.562Z,4.60
2019-02-17T17:00:13.829Z,11.00
2019-02-17T17:02:41.091Z,2.93
2019-02-17T17:05:09.671Z,4.57
2019-02-17T17:07:36.621Z,5.42
2019-02-17T17:10:04.307Z,6.27
2019-02-17T17:12:31.229Z,7.67
2019-02-17T17:14:58.381Z,4.10
2019-02-17T17:17:25.224Z,2.60
2019-02-17T17:19:52.066Z,2.27
2019-02-17T17:22:21.504Z,2.40
2019-02-17T17:24:48.009Z,3.55
2019-02-17T17:27:15.058Z,2.87
2019-02-17T17:29:42.205Z,9.20
2019-02-17T17:32:09.355Z,3.07
2019-02-17T17:34:36.200Z,3.03
2019-02-17T17:37:04.888Z,5.30
2019-02-17T17:39:31.728Z,6.83
2019-02-17T17:42:00.416Z,1.10
2019-02-17T17:44:38.626Z,4.13
2019-02-17T17:47:05.777Z,4.53
2019-02-17T17:49:32.926Z,2.97
2019-02-17T17:52:02.048Z,2.30
2019-02-17T17:54:28.763Z,7.60
2019-02-17T17:56:55.609Z,2.30
2019-02-17T17:59:23.065Z,5.33
2019-02-17T18:01:49.908Z,5.17
2019-02-17T18:04:16.756Z,8.13
2019-02-17T18:06:43.904Z,9.77
2019-02-17T18:09:11.976Z,7.80
2019-02-17T18:11:39.231Z,4.10
2019-02-17T18:14:06.278Z,4.20
2019-02-17T18:16:36.807Z,3.43
2019-02-17T18:19:05.646Z,5.23
2019-02-17T18:21:32.694Z,12.43
2019-02-17T18:23:59.799Z,9.37
2019-02-17T18:26:26.943Z,14.93
2019-02-17T18:28:54.093Z,7.70
2019-02-17T18:31:21.246Z,16.67
2019-02-17T18:33:48.441Z,21.07
2019-02-17T18:36:15.552Z,7.00
2019-02-17T18:38:42.695Z,8.47
2019-02-17T18:41:09.863Z,6.50
2019-02-17T18:43:37.001Z,4.00
2019-02-17T18:46:04.150Z,3.23
2019-02-17T18:48:31.298Z,7.03
2019-02-17T18:50:59.452Z,5.17
2019-02-17T18:53:26.830Z,9.50
2019-02-17T18:55:53.979Z,3.10
2019-02-17T18:58:21.130Z,10.80
2019-02-17T19:00:48.280Z,5.13
2019-02-17T19:03:15.433Z,6.30
2019-02-17T19:05:42.581Z,7.73
2019-02-17T19:08:09.731Z,32.93
2019-02-17T19:10:36.882Z,13.10
2019-02-17T19:13:04.033Z,9.50
2019-02-17T19:15:31.185Z,16.20
2019-02-17T19:17:58.334Z,13.10
2019-02-17T19:20:27.502Z,8.30
2019-02-17T19:22:54.479Z,7.77
2019-02-17T19:25:21.322Z,4.00
2019-02-17T19:27:48.473Z,2.20
2019-02-17T19:30:15.316Z,6.30
2019-02-17T19:32:42.160Z,7.00
2019-02-17T19:35:11.470Z,13.03
2019-02-17T19:37:38.322Z,3.10
2019-02-17T19:40:07.298Z,5.43
2019-02-17T19:42:34.456Z,5.73
2019-02-17T19:45:01.598Z,6.83
2019-02-17T19:47:28.748Z,8.27
2019-02-17T19:49:55.593Z,8.80
2019-02-17T19:52:22.447Z,5.50
2019-02-17T19:54:49.585Z,7.93
2019-02-17T19:57:16.429Z,3.10
2019-02-17T19:59:43.274Z,12.63
2019-02-17T20:02:10.423Z,8.13
2019-02-17T20:04:39.112Z,5.60
2019-02-17T20:07:05.954Z,8.37
2019-02-17T20:09:32.797Z,4.03
2019-02-17T20:11:59.947Z,3.10
2019-02-17T20:14:27.099Z,5.13
2019-02-17T20:16:54.251Z,3.27
2019-02-17T20:19:21.400Z,5.57
2019-02-17T20:21:48.243Z,11.43
2019-02-17T20:24:15.396Z,3.57
2019-02-17T20:26:42.543Z,1.17
2019-02-17T20:29:11.812Z,6.47
2019-02-17T20:31:38.687Z,43.53
2019-02-17T20:34:05.838Z,7.80
2019-02-17T20:36:32.990Z,1.90
2019-02-17T20:39:00.139Z,6.03
2019-02-17T20:41:27.291Z,2.65
2019-02-17T20:43:54.443Z,2.90
2019-02-17T20:46:21.898Z,3.83
2019-02-17T20:48:49.048Z,4.08
2019-02-17T20:51:16.202Z,6.50
2019-02-17T20:53:43.349Z,4.28
2019-02-17T20:56:10.502Z,6.57
2019-02-17T20:58:37.655Z,318.57
2019-02-17T21:01:05.153Z,15.60
2019-02-17T21:03:32.259Z,5.97
2019-02-17T21:05:59.106Z,11.77
2019-02-17T21:08:26.252Z,11.30
2019-02-17T21:10:53.410Z,9.03
2019-02-17T21:13:20.572Z,50.37
2019-02-17T21:15:48.320Z,14.40
2019-02-17T21:18:15.212Z,7.23
2019-02-17T21:20:42.312Z,4.07
2019-02-17T21:23:09.470Z,5.60
2019-02-17T21:25:36.626Z,6.00
2019-02-17T21:28:03.467Z,5.33
2019-02-17T21:30:30.612Z,1.53
2019-02-17T21:32:57.760Z,3.33
2019-02-17T21:35:24.615Z,5.28
2019-02-17T21:37:52.800Z,2.75
2019-02-17T21:40:19.824Z,6.30
2019-02-17T21:42:46.671Z,7.25
2019-02-17T21:45:14.700Z,2.25
2019-02-17T21:47:41.641Z,6.78
2019-02-17T21:50:11.500Z,32.65
2019-02-17T21:52:38.452Z,3.08
2019-02-17T21:55:07.542Z,3.77
2019-02-17T21:57:34.486Z,6.22
2019-02-17T22:00:01.636Z,4.10
2019-02-17T22:02:28.480Z,4.55
2019-02-17T22:04:55.369Z,6.12
2019-02-17T22:07:22.217Z,31.30
2019-02-17T22:09:49.323Z,22.20
2019-02-17T22:12:16.506Z,29.15
2019-02-17T22:14:43.619Z,7.60
2019-02-17T22:17:10.480Z,7.37
2019-02-17T22:19:39.327Z,7.17
2019-02-17T22:22:05.996Z,7.53
2019-02-17T22:24:33.146Z,14.75
2019-02-17T22:27:00.295Z,124.07
2019-02-17T22:29:27.185Z,5.37
2019-02-17T22:31:54.287Z,8.95
2019-02-17T22:34:21.441Z,7.12
2019-02-17T22:36:48.282Z,2.65
2019-02-17T22:39:15.124Z,5.12
2019-02-17T22:41:42.277Z,9.60
2019-02-17T22:44:09.119Z,57.90
2019-02-17T22:46:36.268Z,69.47
